Time;durP1;ratioP1;P1;durP2;ratioP2;P2;SDS_P1;SDS_P2;PMS_P1;PMS_P2;Temp;Humidity;BMP_temperature;BMP_pressure;BME280_temperature;BME280_humidity;BME280_pressure;Samples;Min_cycle;Max_cycle;Signal;HPM_P1;HPM_P2
2022/10/19 00:01:23;;;;;;;6.35;2.00;;;10.70;99.90;;;;;;4960659;28;20147;-59
2022/10/19 00:03:52;;;;;;;4.85;1.75;;;10.70;99.90;;;;;;4956553;28;20042;-59
2022/10/19 00:06:24;;;;;;;5.55;2.10;;;10.70;99.90;;;;;;4957044;28;20142;-59
2022/10/19 00:08:51;;;;;;;5.03;1.65;;;10.70;99.90;;;;;;4953665;28;20125;-58
2022/10/19 00:11:18;;;;;;;9.38;1.80;;;10.70;99.90;;;;;;4957129;28;20057;-59
2022/10/19 00:13:43;;;;;;;4.70;1.80;;;10.80;99.90;;;;;;4957138;28;20133;-59
2022/10/19 00:16:11;;;;;;;8.45;1.95;;;10.70;99.90;;;;;;4955709;28;20126;-59
2022/10/19 00:18:38;;;;;;;5.40;1.75;;;10.80;99.90;;;;;;4956216;28;20834;-59
2022/10/19 00:21:05;;;;;;;6.38;1.60;;;10.80;99.90;;;;;;4956825;28;20533;-59
2022/10/19 00:23:31;;;;;;;8.80;2.00;;;10.80;99.90;;;;;;4955843;28;20046;-59
2022/10/19 00:25:57;;;;;;;4.40;1.40;;;10.80;99.90;;;;;;4954686;28;20046;-59
2022/10/19 00:28:23;;;;;;;4.38;1.60;;;10.80;99.90;;;;;;4956847;28;20035;-59
2022/10/19 00:30:50;;;;;;;7.97;1.60;;;10.80;99.90;;;;;;4958214;28;20051;-58
2022/10/19 00:33:20;;;;;;;4.55;1.58;;;10.90;99.90;;;;;;4957591;28;20122;-60
2022/10/19 00:35:48;;;;;;;5.45;1.77;;;10.90;99.90;;;;;;4970930;28;20051;-59
2022/10/19 00:38:16;;;;;;;4.05;1.30;;;10.90;99.90;;;;;;4923817;28;20126;-59
2022/10/19 00:40:42;;;;;;;8.15;1.77;;;10.90;99.90;;;;;;4956275;28;20067;-59
2022/10/19 00:43:22;;;;;;;5.95;1.48;;;10.90;99.90;;;;;;4956589;28;20082;-59
2022/10/19 00:45:48;;;;;;;3.63;1.50;;;10.90;99.90;;;;;;4961431;28;20046;-59
2022/10/19 00:48:28;;;;;;;6.97;1.75;;;10.90;99.90;;;;;;4961323;28;20376;-59
2022/10/19 00:50:57;;;;;;;9.60;1.50;;;11.00;99.90;;;;;;4956635;28;20058;-59
2022/10/19 00:53:26;;;;;;;5.93;1.90;;;10.90;99.90;;;;;;4960425;28;20128;-59
2022/10/19 00:55:53;;;;;;;6.50;1.70;;;10.90;99.90;;;;;;4959557;28;20062;-59
2022/10/19 00:58:19;;;;;;;6.88;1.77;;;11.00;99.90;;;;;;4961210;28;20050;-59
2022/10/19 01:00:45;;;;;;;4.10;1.52;;;11.00;99.90;;;;;;4956502;28;20158;-59
2022/10/19 01:03:12;;;;;;;6.75;1.70;;;11.00;99.90;;;;;;4961705;28;20043;-59
2022/10/19 01:05:38;;;;;;;5.68;1.88;;;11.00;99.90;;;;;;4961409;28;20118;-58
2022/10/19 01:08:05;;;;;;;4.40;1.90;;;11.00;99.90;;;;;;4960662;28;21072;-59
2022/10/19 01:11:03;;;;;;;4.30;1.48;;;11.00;99.90;;;;;;4962181;28;20078;-59
2022/10/19 01:13:58;;;;;;;7.38;1.75;;;11.00;99.90;;;;;;4961772;28;20055;-59
2022/10/19 01:16:37;;;;;;;5.28;1.73;;;11.00;99.90;;;;;;4960056;28;20093;-59
2022/10/19 01:19:32;;;;;;;5.72;1.40;;;11.00;99.90;;;;;;4961780;28;20059;-59
2022/10/19 01:22:27;;;;;;;4.85;1.52;;;11.00;99.90;;;;;;4960425;28;20049;-59
2022/10/19 01:25:23;;;;;;;5.38;1.48;;;11.10;99.90;;;;;;4961037;28;20074;-58
2022/10/19 01:28:18;;;;;;;6.85;1.38;;;11.10;99.90;;;;;;4960215;28;20050;-58
2022/10/19 01:30:46;;;;;;;8.60;2.20;;;11.10;99.90;;;;;;4958734;28;20047;-59
2022/10/19 01:33:34;;;;;;;5.93;1.20;;;11.10;99.90;;;;;;4961080;28;20058;-59
2022/10/19 01:36:05;;;;;;;8.95;1.52;;;11.10;99.90;;;;;;4960458;28;20113;-60
2022/10/19 01:38:47;;;;;;;5.60;1.50;;;11.10;99.90;;;;;;4961459;28;20042;-60
2022/10/19 01:41:18;;;;;;;11.60;2.78;;;11.10;99.90;;;;;;4960621;28;20058;-59
2022/10/19 01:44:00;;;;;;;10.93;1.73;;;11.10;99.90;;;;;;4959247;28;20058;-60
2022/10/19 01:46:50;;;;;;;5.43;1.38;;;11.20;99.90;;;;;;4960118;28;20118;-59
2022/10/19 01:49:22;;;;;;;6.60;1.38;;;11.20;99.90;;;;;;4961353;28;20390;-59
2022/10/19 01:51:56;;;;;;;4.70;1.08;;;11.20;99.90;;;;;;4955914;28;20082;-59
2022/10/19 01:54:25;;;;;;;3.85;1.13;;;11.20;99.90;;;;;;4958608;28;20043;-59
2022/10/19 01:56:53;;;;;;;6.22;1.30;;;11.20;99.90;;;;;;4959540;28;20086;-59
2022/10/19 01:59:21;;;;;;;8.32;1.42;;;11.20;99.90;;;;;;4964826;28;20147;-59
2022/10/19 02:01:48;;;;;;;9.95;1.60;;;11.20;99.90;;;;;;4958571;28;20059;-59
2022/10/19 02:04:17;;;;;;;5.32;1.13;;;11.20;99.90;;;;;;4959125;28;20047;-59
2022/10/19 02:06:43;;;;;;;7.40;1.63;;;11.20;99.90;;;;;;4958744;28;20049;-60
2022/10/19 02:09:16;;;;;;;9.32;1.70;;;11.20;99.90;;;;;;4959908;28;20043;-59
2022/10/19 02:11:56;;;;;;;7.93;1.60;;;11.20;99.90;;;;;;4960685;28;20051;-59
2022/10/19 02:14:30;;;;;;;6.35;1.35;;;11.20;99.90;;;;;;4958652;28;20555;-59
2022/10/19 02:17:07;;;;;;;10.43;1.70;;;11.20;99.90;;;;;;4960184;28;20054;-59
2022/10/19 02:19:35;;;;;;;7.07;1.50;;;11.20;99.90;;;;;;4959386;28;20629;-59
2022/10/19 02:22:01;;;;;;;7.80;1.67;;;11.20;99.90;;;;;;4958492;28;20534;-59
2022/10/19 02:24:27;;;;;;;14.05;1.58;;;11.20;99.90;;;;;;4960775;28;20077;-59
2022/10/19 02:26:53;;;;;;;9.20;1.80;;;11.20;99.90;;;;;;4961549;28;20074;-59
2022/10/19 02:29:19;;;;;;;9.95;2.05;;;11.20;99.90;;;;;;4960492;28;20105;-59
2022/10/19 02:31:45;;;;;;;9.85;1.50;;;11.20;99.90;;;;;;4960509;28;20055;-60
2022/10/19 02:34:12;;;;;;;8.43;1.65;;;11.20;99.90;;;;;;4957797;28;20151;-59
2022/10/19 02:36:38;;;;;;;6.68;1.30;;;11.20;99.90;;;;;;4960184;28;20047;-59
2022/10/19 02:39:05;;;;;;;9.18;1.45;;;11.20;99.90;;;;;;4960219;28;20043;-59
2022/10/19 02:42:10;;;;;;;7.60;1.80;;;11.20;99.90;;;;;;4956273;28;20470;-59
2022/10/19 02:45:01;;;;;;;10.07;1.70;;;11.10;99.90;;;;;;4962036;28;20523;-59
2022/10/19 02:47:34;;;;;;;11.10;1.73;;;11.10;99.90;;;;;;4948137;28;20061;-59
2022/10/19 02:50:03;;;;;;;10.90;1.88;;;11.10;99.90;;;;;;4958328;28;20056;-59
2022/10/19 02:52:29;;;;;;;9.32;1.90;;;11.10;99.90;;;;;;4959768;28;20906;-59
2022/10/19 02:54:55;;;;;;;10.27;1.73;;;11.10;99.90;;;;;;4959370;28;20075;-59
2022/10/19 02:57:23;;;;;;;11.32;1.85;;;11.10;99.90;;;;;;4959264;28;20070;-59
2022/10/19 02:59:50;;;;;;;12.70;2.00;;;11.10;99.90;;;;;;4960951;28;20051;-58
2022/10/19 03:02:17;;;;;;;11.70;2.08;;;11.10;99.90;;;;;;4958578;28;20063;-59
2022/10/19 03:04:44;;;;;;;10.95;1.63;;;11.00;99.90;;;;;;4958397;28;20047;-59
2022/10/19 03:07:11;;;;;;;7.60;1.25;;;11.00;99.90;;;;;;4959192;28;20051;-59
2022/10/19 03:09:37;;;;;;;7.70;1.70;;;10.90;99.90;;;;;;4960592;28;20069;-59
2022/10/19 03:12:03;;;;;;;8.80;2.03;;;10.90;99.90;;;;;;4960348;28;20054;-58
2022/10/19 03:14:28;;;;;;;9.27;2.03;;;10.80;99.90;;;;;;4959031;28;20055;-59
2022/10/19 03:16:54;;;;;;;8.90;1.65;;;10.80;99.90;;;;;;4952326;28;20061;-59
2022/10/19 03:19:20;;;;;;;9.27;2.03;;;10.80;99.90;;;;;;4961939;28;20595;-59
2022/10/19 03:21:46;;;;;;;9.90;2.10;;;10.70;99.90;;;;;;4960614;28;20133;-59
2022/10/19 03:24:12;;;;;;;14.77;2.05;;;10.70;99.90;;;;;;4957630;28;20102;-59
2022/10/19 03:26:38;;;;;;;13.70;2.38;;;10.60;99.90;;;;;;4960884;28;20485;-59
2022/10/19 03:29:03;;;;;;;13.35;1.88;;;10.70;99.90;;;;;;4959768;28;20046;-59
2022/10/19 03:31:29;;;;;;;11.88;2.10;;;10.60;99.90;;;;;;4959946;28;20405;-59
2022/10/19 03:33:55;;;;;;;8.57;1.70;;;10.60;99.90;;;;;;4959737;28;20378;-60
2022/10/19 03:36:26;;;;;;;8.02;1.67;;;10.70;99.90;;;;;;4961445;28;20478;-59
2022/10/19 03:38:54;;;;;;;15.93;2.65;;;10.60;99.90;;;;;;4960294;28;20073;-59
2022/10/19 03:41:22;;;;;;;10.40;2.10;;;10.60;99.90;;;;;;4959405;28;20042;-59
2022/10/19 03:43:48;;;;;;;12.07;2.25;;;10.60;99.90;;;;;;4958791;28;20047;-59
2022/10/19 03:46:14;;;;;;;9.55;1.95;;;10.70;99.90;;;;;;4959569;28;20046;-59
2022/10/19 03:48:39;;;;;;;10.80;1.83;;;10.70;99.90;;;;;;4959672;28;20066;-59
2022/10/19 03:51:15;;;;;;;8.50;1.83;;;10.70;99.90;;;;;;4961691;28;20046;-59
2022/10/19 03:53:41;;;;;;;8.13;1.77;;;10.70;99.90;;;;;;4960439;28;20101;-61
2022/10/19 03:56:12;;;;;;;10.55;2.15;;;10.70;99.90;;;;;;4957663;28;20613;-59
2022/10/19 03:58:39;;;;;;;9.68;2.10;;;10.70;99.90;;;;;;4960820;28;20085;-60
2022/10/19 04:01:08;;;;;;;10.02;1.98;;;10.70;99.90;;;;;;4958865;28;20081;-59
2022/10/19 04:03:34;;;;;;;11.68;2.50;;;10.60;99.90;;;;;;4959588;28;20053;-59
2022/10/19 04:06:08;;;;;;;11.75;1.92;;;10.60;99.90;;;;;;4961358;28;20051;-58
2022/10/19 04:08:34;;;;;;;14.43;2.13;;;10.60;99.90;;;;;;4961257;28;20085;-59
2022/10/19 04:11:05;;;;;;;12.57;2.10;;;10.70;99.90;;;;;;4959922;28;20786;-59
2022/10/19 04:13:33;;;;;;;10.48;2.10;;;10.70;99.90;;;;;;4957713;28;20047;-58
2022/10/19 04:15:59;;;;;;;14.38;2.38;;;10.70;99.90;;;;;;4960467;28;20042;-59
2022/10/19 04:18:25;;;;;;;11.88;2.03;;;10.70;99.90;;;;;;4961388;28;20133;-59
2022/10/19 04:20:58;;;;;;;9.68;1.70;;;10.70;99.90;;;;;;4958155;28;20121;-59
2022/10/19 04:23:29;;;;;;;12.23;1.75;;;10.70;99.90;;;;;;4964044;28;20397;-59
2022/10/19 04:26:04;;;;;;;13.65;1.80;;;10.70;99.90;;;;;;4964531;28;20046;-60
2022/10/19 04:28:31;;;;;;;11.60;1.80;;;10.70;99.90;;;;;;4963019;28;20505;-59
2022/10/19 04:31:01;;;;;;;8.23;2.22;;;10.60;99.90;;;;;;4961960;28;20054;-59
2022/10/19 04:33:27;;;;;;;14.20;2.30;;;10.60;99.90;;;;;;4961295;28;20043;-59
2022/10/19 04:36:00;;;;;;;14.52;2.10;;;10.60;99.90;;;;;;4980689;28;20504;-59
2022/10/19 04:38:27;;;;;;;12.05;2.55;;;10.60;99.90;;;;;;4962025;28;20529;-59
2022/10/19 04:40:53;;;;;;;11.75;2.30;;;10.60;99.90;;;;;;4962613;28;20390;-58
2022/10/19 04:43:19;;;;;;;8.95;1.83;;;10.60;99.90;;;;;;4962746;28;20109;-59
2022/10/19 04:45:44;;;;;;;15.18;2.08;;;10.60;99.90;;;;;;4962227;28;20795;-59
2022/10/19 04:48:10;;;;;;;11.32;1.85;;;10.60;99.90;;;;;;4962362;28;20049;-59
2022/10/19 04:50:36;;;;;;;10.15;1.88;;;10.50;99.90;;;;;;4963060;28;20054;-60
2022/10/19 04:53:02;;;;;;;9.63;2.25;;;10.50;99.90;;;;;;4962950;28;20059;-58
2022/10/19 04:55:28;;;;;;;12.77;2.22;;;10.50;99.90;;;;;;4959838;28;20509;-59
2022/10/19 04:57:54;;;;;;;12.10;2.35;;;10.50;99.90;;;;;;4962764;28;20845;-59
2022/10/19 05:00:19;;;;;;;8.38;1.80;;;10.50;99.90;;;;;;4962501;28;20512;-59
2022/10/19 05:02:46;;;;;;;12.82;1.92;;;10.50;99.90;;;;;;4960513;28;20054;-59
2022/10/19 05:05:13;;;;;;;13.70;2.13;;;10.50;99.90;;;;;;4962420;28;20078;-60
2022/10/19 05:07:39;;;;;;;10.63;1.88;;;10.50;99.90;;;;;;4962556;28;20089;-59
2022/10/19 05:10:05;;;;;;;11.18;2.00;;;10.50;99.90;;;;;;4964282;28;20121;-58
2022/10/19 05:12:33;;;;;;;11.82;1.77;;;10.50;99.90;;;;;;4961198;28;20129;-60
2022/10/19 05:14:58;;;;;;;13.20;2.08;;;10.50;99.90;;;;;;4963123;28;20057;-59
2022/10/19 05:17:24;;;;;;;9.48;1.88;;;10.50;99.90;;;;;;4961083;28;20497;-59
2022/10/19 05:19:50;;;;;;;10.07;2.20;;;10.50;99.90;;;;;;4963420;28;20055;-59
2022/10/19 05:22:16;;;;;;;10.38;2.22;;;10.50;99.90;;;;;;4961026;28;20115;-59
2022/10/19 05:24:41;;;;;;;15.57;2.10;;;10.60;99.90;;;;;;4961785;28;20047;-59
2022/10/19 05:27:07;;;;;;;11.85;2.00;;;10.50;99.90;;;;;;4963307;28;20070;-59
2022/10/19 05:29:33;;;;;;;8.70;2.22;;;10.50;99.90;;;;;;4958136;28;20500;-59
2022/10/19 05:31:59;;;;;;;8.77;2.20;;;10.50;99.90;;;;;;4955472;28;20058;-58
2022/10/19 05:34:24;;;;;;;10.38;1.85;;;10.50;99.90;;;;;;4961848;28;20394;-58
2022/10/19 05:36:50;;;;;;;13.15;2.03;;;10.50;99.90;;;;;;4961887;28;20047;-59
2022/10/19 05:39:17;;;;;;;13.10;2.08;;;10.50;99.90;;;;;;4962218;28;20042;-59
2022/10/19 05:41:44;;;;;;;11.13;2.22;;;10.50;99.90;;;;;;4961460;28;20452;-59
2022/10/19 05:44:17;;;;;;;12.00;2.13;;;10.50;99.90;;;;;;4962949;28;20054;-60
2022/10/19 05:46:43;;;;;;;14.32;1.80;;;10.50;99.90;;;;;;4960185;28;20385;-59
2022/10/19 05:49:10;;;;;;;11.85;2.15;;;10.50;99.90;;;;;;4959245;28;20050;-59
2022/10/19 05:51:37;;;;;;;15.40;2.50;;;10.50;99.90;;;;;;4958531;28;20052;-59
2022/10/19 05:54:03;;;;;;;12.60;1.75;;;10.50;99.90;;;;;;4962416;28;20093;-59
2022/10/19 05:56:30;;;;;;;7.15;1.83;;;10.50;99.90;;;;;;4958932;28;20574;-59
2022/10/19 05:58:57;;;;;;;14.70;2.20;;;10.50;99.90;;;;;;4962198;28;20038;-59
2022/10/19 06:01:24;;;;;;;8.15;1.73;;;10.50;99.90;;;;;;4959652;28;20050;-59
2022/10/19 06:03:56;;;;;;;5.85;1.50;;;10.50;99.90;;;;;;4957932;28;20123;-59
2022/10/19 06:06:23;;;;;;;10.35;1.73;;;10.50;99.90;;;;;;4962526;28;20050;-59
2022/10/19 06:08:49;;;;;;;12.27;2.13;;;10.60;99.90;;;;;;4960087;28;20497;-59
2022/10/19 06:11:18;;;;;;;8.45;1.92;;;10.60;99.90;;;;;;4958981;28;20050;-59
2022/10/19 06:13:46;;;;;;;8.98;2.05;;;10.60;99.90;;;;;;4961551;28;20527;-59
2022/10/19 06:16:14;;;;;;;11.27;1.88;;;10.60;99.90;;;;;;4962615;28;20502;-58
2022/10/19 06:18:40;;;;;;;11.57;2.20;;;10.60;99.90;;;;;;4961821;28;20929;-59
2022/10/19 06:21:09;;;;;;;10.32;1.60;;;10.70;99.90;;;;;;4960118;28;20074;-59
2022/10/19 06:23:36;;;;;;;6.93;1.90;;;10.70;99.90;;;;;;4960671;28;20079;-59
2022/10/19 06:26:05;;;;;;;9.32;1.95;;;10.70;99.90;;;;;;4958896;28;20125;-59
2022/10/19 06:28:31;;;;;;;13.02;2.03;;;10.80;99.90;;;;;;4961053;28;20572;-59
2022/10/19 06:30:58;;;;;;;14.82;2.17;;;10.80;99.90;;;;;;4960951;28;20079;-58
2022/10/19 06:33:24;;;;;;;9.07;1.40;;;10.80;99.90;;;;;;4962653;28;20387;-59
2022/10/19 06:35:50;;;;;;;8.88;1.67;;;10.90;99.90;;;;;;4959787;28;20128;-59
2022/10/19 06:38:16;;;;;;;10.88;2.13;;;10.90;99.90;;;;;;4957910;28;20054;-59
2022/10/19 06:40:42;;;;;;;7.07;1.63;;;10.90;99.90;;;;;;4959162;28;20106;-60
2022/10/19 06:43:08;;;;;;;11.35;1.90;;;10.90;99.90;;;;;;4958916;28;20074;-59
2022/10/19 06:45:37;;;;;;;13.25;2.08;;;10.90;99.90;;;;;;4958717;28;20493;-59
2022/10/19 06:48:04;;;;;;;11.65;2.00;;;10.90;99.90;;;;;;4956083;28;20055;-60
2022/10/19 06:50:31;;;;;;;13.57;2.08;;;11.00;99.90;;;;;;4954289;28;20046;-59
2022/10/19 06:52:59;;;;;;;11.88;2.00;;;11.00;99.90;;;;;;4956533;28;20074;-59
2022/10/19 06:55:25;;;;;;;10.55;1.75;;;11.00;99.90;;;;;;4955611;28;20058;-59
2022/10/19 06:57:51;;;;;;;6.72;1.50;;;11.00;99.90;;;;;;4956373;28;20458;-59
2022/10/19 07:00:16;;;;;;;8.63;1.80;;;11.10;99.90;;;;;;4957788;28;20054;-60
2022/10/19 07:02:43;;;;;;;9.15;1.60;;;11.00;99.90;;;;;;4955071;28;20062;-59
2022/10/19 07:05:09;;;;;;;9.00;1.48;;;11.10;99.90;;;;;;4957325;28;20481;-59
2022/10/19 07:07:35;;;;;;;18.85;2.28;;;11.10;99.90;;;;;;4955456;28;20502;-59
2022/10/19 07:10:01;;;;;;;9.63;1.75;;;11.10;99.90;;;;;;4957390;28;20057;-59
2022/10/19 07:12:27;;;;;;;6.47;1.63;;;11.10;99.90;;;;;;4955467;28;20073;-59
2022/10/19 07:14:54;;;;;;;12.65;2.00;;;11.10;99.90;;;;;;4959325;28;20146;-59
2022/10/19 07:17:20;;;;;;;12.93;2.53;;;11.10;99.90;;;;;;4944966;28;20043;-59
2022/10/19 07:19:46;;;;;;;10.20;2.00;;;11.10;99.90;;;;;;4956327;28;20133;-60
2022/10/19 07:22:12;;;;;;;11.13;1.77;;;11.20;99.90;;;;;;4955407;28;20050;-60
2022/10/19 07:24:37;;;;;;;9.88;2.17;;;11.20;99.90;;;;;;4954206;28;20051;-58
2022/10/19 07:27:03;;;;;;;8.25;1.77;;;11.20;99.90;;;;;;4957675;28;20043;-59
2022/10/19 07:29:29;;;;;;;7.57;1.70;;;11.20;99.90;;;;;;4953461;28;20478;-60
2022/10/19 07:31:55;;;;;;;7.90;1.80;;;11.30;99.90;;;;;;4939821;28;20043;-59
2022/10/19 07:34:21;;;;;;;13.35;1.77;;;11.30;99.90;;;;;;4961346;28;20101;-59
2022/10/19 07:36:47;;;;;;;9.63;1.88;;;11.30;99.90;;;;;;4955269;28;20081;-59
2022/10/19 07:39:15;;;;;;;12.75;2.17;;;11.40;99.90;;;;;;4955150;28;20094;-58
2022/10/19 07:41:42;;;;;;;7.78;1.70;;;11.40;99.90;;;;;;4952844;28;20130;-58
2022/10/19 07:44:08;;;;;;;10.27;1.83;;;11.40;99.90;;;;;;4954679;28;20130;-58
2022/10/19 07:46:36;;;;;;;10.75;1.65;;;11.40;99.90;;;;;;4954812;28;20039;-59
2022/10/19 07:49:04;;;;;;;16.73;2.60;;;11.50;99.90;;;;;;4954089;28;21720;-59
2022/10/19 07:51:30;;;;;;;15.02;2.17;;;11.50;99.90;;;;;;4957081;28;20054;-59
2022/10/19 07:53:57;;;;;;;14.50;1.83;;;11.50;99.90;;;;;;4953040;28;20046;-59
2022/10/19 07:56:25;;;;;;;10.07;1.70;;;11.60;99.90;;;;;;4954968;28;20051;-59
2022/10/19 07:58:53;;;;;;;12.75;1.95;;;11.60;99.90;;;;;;4954233;28;20515;-59
2022/10/19 08:01:41;;;;;;;10.60;2.00;;;11.60;99.90;;;;;;4952686;28;20059;-58
2022/10/19 08:04:07;;;;;;;9.10;1.70;;;11.70;99.90;;;;;;4954820;28;20125;-59
2022/10/19 08:06:34;;;;;;;14.60;1.70;;;11.70;99.90;;;;;;4955168;28;20057;-59
2022/10/19 08:08:59;;;;;;;11.00;1.50;;;11.80;99.90;;;;;;4960075;28;20134;-59
2022/10/19 08:11:31;;;;;;;11.40;1.95;;;11.80;99.90;;;;;;4960008;28;20113;-59
2022/10/19 08:13:58;;;;;;;9.98;1.85;;;11.90;99.90;;;;;;4953244;28;20055;-59
2022/10/19 08:16:38;;;;;;;14.02;2.30;;;11.90;99.90;;;;;;4952226;28;20035;-60
2022/10/19 08:19:14;;;;;;;9.07;1.80;;;12.00;99.90;;;;;;4953831;28;20046;-59
2022/10/19 08:21:45;;;;;;;9.82;2.17;;;12.00;99.90;;;;;;4954168;28;20057;-59
2022/10/19 08:24:13;;;;;;;9.00;1.75;;;12.00;99.90;;;;;;4954004;28;20104;-59
2022/10/19 08:26:40;;;;;;;12.18;1.63;;;12.10;99.90;;;;;;4952822;28;20043;-59
2022/10/19 08:29:18;;;;;;;10.30;1.70;;;12.10;99.90;;;;;;4952793;28;20093;-59
2022/10/19 08:31:45;;;;;;;12.68;1.80;;;12.10;99.90;;;;;;4953265;28;20118;-59
2022/10/19 08:34:12;;;;;;;9.80;1.67;;;12.20;99.90;;;;;;4953913;28;20059;-59
2022/10/19 08:36:38;;;;;;;9.55;1.88;;;12.20;99.90;;;;;;4955279;28;20461;-59
2022/10/19 08:39:06;;;;;;;9.05;2.25;;;12.20;99.90;;;;;;4954342;28;20470;-59
2022/10/19 08:41:35;;;;;;;10.75;1.85;;;12.20;99.90;;;;;;4954140;28;20043;-59
2022/10/19 08:44:26;;;;;;;11.75;1.85;;;12.30;99.90;;;;;;4952944;28;20051;-59
2022/10/19 08:47:37;;;;;;;13.13;2.00;;;12.30;99.90;;;;;;4955078;28;20075;-59
2022/10/19 08:50:17;;;;;;;10.70;1.98;;;12.30;99.90;;;;;;4954210;28;20057;-58
2022/10/19 08:52:48;;;;;;;10.75;1.70;;;12.40;99.90;;;;;;4953465;28;20066;-59
2022/10/19 08:55:32;;;;;;;13.57;1.57;;;12.50;99.90;;;;;;4955100;28;20087;-58
2022/10/19 08:58:24;;;;;;;10.13;1.80;;;12.50;99.90;;;;;;4953556;28;20718;-59
2022/10/19 09:01:05;;;;;;;9.13;1.88;;;12.60;99.90;;;;;;4945361;28;20390;-57
2022/10/19 09:03:45;;;;;;;11.13;1.80;;;12.60;99.90;;;;;;4952993;28;20428;-59
2022/10/19 09:06:27;;;;;;;12.48;2.05;;;12.60;99.90;;;;;;4956258;28;20070;-59
2022/10/19 09:08:55;;;;;;;14.05;2.20;;;12.70;99.90;;;;;;4956273;28;20083;-59
2022/10/19 09:11:31;;;;;;;6.75;1.60;;;12.70;99.90;;;;;;4956192;28;20418;-59
2022/10/19 09:14:09;;;;;;;8.43;1.45;;;12.70;99.90;;;;;;4958050;28;20055;-59
2022/10/19 09:16:35;;;;;;;18.98;2.35;;;12.80;99.90;;;;;;4958040;28;20066;-59
2022/10/19 09:19:02;;;;;;;8.82;1.65;;;12.80;99.90;;;;;;4957818;28;20047;-59
2022/10/19 09:21:43;;;;;;;11.50;1.80;;;12.90;99.90;;;;;;4958759;28;20563;-59
2022/10/19 09:24:30;;;;;;;10.52;1.60;;;12.90;99.90;;;;;;4940802;28;20969;-59
2022/10/19 09:26:59;;;;;;;9.93;1.50;;;13.00;99.90;;;;;;4955648;28;21042;-59
2022/10/19 09:29:46;;;;;;;15.20;1.80;;;13.00;99.90;;;;;;4955959;28;20043;-59
2022/10/19 09:32:19;;;;;;;9.85;1.70;;;13.10;99.90;;;;;;4954696;28;20051;-59
2022/10/19 09:34:59;;;;;;;12.93;2.00;;;13.20;99.90;;;;;;4956893;28;20051;-59
2022/10/19 09:37:25;;;;;;;11.07;1.75;;;13.20;99.90;;;;;;4957072;28;20656;-59
2022/10/19 09:39:52;;;;;;;15.75;2.25;;;13.20;99.90;;;;;;4956925;28;20043;-59
2022/10/19 09:42:31;;;;;;;8.98;2.00;;;13.20;99.90;;;;;;4956714;28;20116;-60
2022/10/19 09:44:59;;;;;;;10.40;1.77;;;13.20;99.90;;;;;;4957780;28;20808;-59
2022/10/19 09:47:25;;;;;;;11.68;2.10;;;13.20;99.90;;;;;;4955429;28;20039;-58
2022/10/19 09:50:12;;;;;;;9.82;1.92;;;13.20;99.90;;;;;;4956653;28;20070;-59
2022/10/19 09:52:40;;;;;;;11.38;2.13;;;13.20;99.90;;;;;;4957209;28;20050;-59
2022/10/19 09:55:23;;;;;;;9.05;1.80;;;13.20;99.90;;;;;;4955386;28;20573;-59
2022/10/19 09:58:01;;;;;;;11.50;1.70;;;13.20;99.90;;;;;;4956340;28;20442;-60
2022/10/19 10:00:41;;;;;;;9.00;1.60;;;13.20;99.90;;;;;;4957232;28;21076;-59
2022/10/19 10:03:07;;;;;;;11.05;2.42;;;13.20;99.90;;;;;;4955439;28;20125;-59
2022/10/19 10:05:38;;;;;;;11.05;1.60;;;13.20;99.90;;;;;;4955717;28;20487;-60
2022/10/19 10:08:13;;;;;;;10.85;1.67;;;13.20;99.90;;;;;;4954525;28;20053;-59
2022/10/19 10:10:43;;;;;;;6.28;1.48;;;13.30;99.90;;;;;;4956855;28;20054;-59
2022/10/19 10:13:22;;;;;;;16.45;2.28;;;13.30;99.90;;;;;;4956076;28;20105;-59
2022/10/19 10:16:05;;;;;;;8.80;1.50;;;13.30;99.90;;;;;;4938564;28;20817;-59
2022/10/19 10:18:35;;;;;;;6.25;1.60;;;13.30;99.90;;;;;;4957639;28;20061;-59
2022/10/19 10:21:18;;;;;;;10.35;1.60;;;13.30;99.90;;;;;;4955909;28;20086;-59
2022/10/19 10:24:00;;;;;;;9.35;1.48;;;13.40;99.90;;;;;;4954581;28;20046;-58
2022/10/19 10:26:27;;;;;;;7.57;1.55;;;13.40;99.90;;;;;;4956762;28;20127;-59
2022/10/19 10:28:52;;;;;;;8.35;1.50;;;13.40;99.90;;;;;;4954277;28;20042;-59
2022/10/19 10:31:22;;;;;;;8.35;1.95;;;13.40;99.90;;;;;;4946257;28;20050;-60
2022/10/19 10:34:00;;;;;;;6.93;1.48;;;13.50;99.90;;;;;;4956070;28;20130;-60
2022/10/19 10:36:28;;;;;;;9.07;2.10;;;13.50;99.90;;;;;;4955924;28;20129;-59
2022/10/19 10:39:05;;;;;;;10.68;1.73;;;13.60;99.90;;;;;;4954617;28;20057;-60
2022/10/19 10:41:38;;;;;;;9.68;1.70;;;13.60;99.90;;;;;;4955666;28;20050;-59
2022/10/19 10:44:22;;;;;;;9.90;2.22;;;13.60;99.90;;;;;;4956534;28;20046;-59
2022/10/19 10:46:54;;;;;;;9.05;1.88;;;13.70;99.90;;;;;;4955518;28;20051;-59
2022/10/19 10:49:29;;;;;;;7.10;1.88;;;13.80;99.90;;;;;;4953680;28;20039;-59
2022/10/19 10:52:03;;;;;;;9.07;1.85;;;13.90;99.90;;;;;;4954565;28;20088;-60
2022/10/19 10:54:31;;;;;;;8.38;1.77;;;13.90;99.90;;;;;;4954621;28;20121;-60
2022/10/19 10:57:12;;;;;;;7.25;1.40;;;14.00;99.90;;;;;;4955126;28;20078;-59
2022/10/19 10:59:46;;;;;;;9.50;1.70;;;14.00;99.90;;;;;;4954127;28;20080;-59
2022/10/19 11:02:57;;;;;;;7.57;1.98;;;14.00;99.90;;;;;;4955126;28;20067;-60
2022/10/19 11:05:25;;;;;;;10.07;2.15;;;14.10;99.90;;;;;;4950488;28;20038;-60
2022/10/19 11:07:57;;;;;;;9.68;2.20;;;14.10;99.90;;;;;;4954296;28;20054;-59
2022/10/19 11:10:32;;;;;;;12.00;1.55;;;14.10;99.90;;;;;;4955312;28;20720;-59
2022/10/19 11:13:15;;;;;;;12.32;1.50;;;14.10;99.90;;;;;;4955659;28;20552;-60
2022/10/19 11:16:03;;;;;;;6.63;1.60;;;14.20;99.90;;;;;;4955200;28;20575;-58
2022/10/19 11:18:47;;;;;;;6.63;1.30;;;14.20;99.90;;;;;;4954763;28;20047;-60
2022/10/19 11:21:25;;;;;;;12.77;1.60;;;14.30;99.90;;;;;;4954262;28;21075;-60
2022/10/19 11:24:20;;;;;;;9.50;1.50;;;14.40;99.90;;;;;;4954475;28;20110;-59
2022/10/19 11:26:51;;;;;;;9.98;1.70;;;14.40;99.90;;;;;;4953897;28;20512;-59
2022/10/19 11:29:17;;;;;;;6.63;1.40;;;14.40;99.90;;;;;;4953935;28;20046;-60
2022/10/19 11:31:55;;;;;;;8.75;1.88;;;14.50;99.90;;;;;;4953998;28;20777;-59
2022/10/19 11:34:24;;;;;;;10.30;1.73;;;14.50;99.90;;;;;;4954831;28;20047;-60
2022/10/19 11:36:57;;;;;;;5.35;1.60;;;14.50;99.90;;;;;;4953911;28;20166;-60
2022/10/19 11:39:33;;;;;;;9.40;1.65;;;14.50;99.90;;;;;;4954456;28;20830;-60
2022/10/19 11:42:19;;;;;;;7.20;1.75;;;14.50;99.90;;;;;;4953593;28;20051;-59
2022/10/19 11:44:45;;;;;;;9.93;1.50;;;14.50;99.90;;;;;;4954733;28;20599;-60
2022/10/19 11:47:40;;;;;;;9.50;1.45;;;14.50;99.90;;;;;;4954289;28;20513;-59
2022/10/19 11:50:19;;;;;;;9.15;1.50;;;14.50;99.90;;;;;;4955043;28;20414;-60
2022/10/19 11:53:35;;;;;;;7.53;1.25;;;14.50;99.90;;;;;;4952881;28;20170;-60
2022/10/19 11:56:19;;;;;;;6.57;1.48;;;14.50;99.90;;;;;;4883674;29;20100;-59
2022/10/19 11:59:12;;;;;;;9.68;1.80;;;14.50;99.90;;;;;;4949156;28;20059;-58
2022/10/19 12:01:50;;;;;;;9.65;1.55;;;14.50;99.90;;;;;;4953931;28;20066;-59
2022/10/19 12:04:34;;;;;;;13.30;2.22;;;14.40;99.90;;;;;;4952148;28;20398;-60
2022/10/19 12:07:03;;;;;;;8.02;1.58;;;14.40;99.90;;;;;;4953617;28;20124;-60
2022/10/19 12:09:37;;;;;;;8.88;1.88;;;14.40;99.90;;;;;;4954536;28;20047;-59
2022/10/19 12:12:35;;;;;;;11.27;1.50;;;14.40;99.90;;;;;;4952701;28;20035;-59
2022/10/19 12:15:27;;;;;;;6.18;1.35;;;14.40;99.90;;;;;;4954376;28;20039;-59
2022/10/19 12:17:57;;;;;;;6.93;1.63;;;14.30;99.90;;;;;;4945481;28;20055;-58
2022/10/19 12:20:29;;;;;;;10.07;1.83;;;14.30;99.90;;;;;;4966932;28;20136;-60
2022/10/19 12:22:58;;;;;;;7.53;1.60;;;14.30;99.90;;;;;;4953782;28;20043;-59
2022/10/19 12:25:25;;;;;;;10.48;1.50;;;14.30;99.90;;;;;;4961288;28;20438;-60
2022/10/19 12:27:51;;;;;;;7.15;1.58;;;14.30;99.90;;;;;;4952647;28;20047;-60
2022/10/19 12:30:21;;;;;;;8.82;1.70;;;14.30;99.90;;;;;;4953273;28;20058;-59
2022/10/19 12:32:57;;;;;;;9.27;1.75;;;14.30;99.90;;;;;;4953153;28;20110;-60
2022/10/19 12:35:54;;;;;;;11.55;1.80;;;14.30;99.90;;;;;;4940623;28;20043;-60
2022/10/19 12:38:29;;;;;;;9.27;2.15;;;14.40;99.90;;;;;;4959110;28;20047;-60
2022/10/19 12:41:05;;;;;;;6.88;1.58;;;14.50;99.90;;;;;;4956295;28;20573;-60
2022/10/19 12:43:56;;;;;;;8.27;1.70;;;14.60;99.80;;;;;;4957596;28;20047;-60
2022/10/19 12:46:45;;;;;;;8.20;1.88;;;14.60;99.60;;;;;;4957885;28;20044;-60
2022/10/19 12:49:29;;;;;;;8.35;1.65;;;14.60;99.50;;;;;;4956905;28;20070;-60
2022/10/19 12:51:59;;;;;;;7.50;1.50;;;14.60;99.50;;;;;;4957161;28;20081;-60
2022/10/19 12:54:27;;;;;;;8.50;1.73;;;14.70;99.70;;;;;;4956525;28;20055;-60
2022/10/19 12:56:55;;;;;;;10.02;1.88;;;14.70;99.50;;;;;;4957609;28;20114;-59
2022/10/19 12:59:23;;;;;;;9.73;1.73;;;14.80;99.60;;;;;;4955315;28;20050;-60
2022/10/19 13:01:50;;;;;;;8.43;1.70;;;14.90;99.00;;;;;;4956120;28;20067;-59
2022/10/19 13:04:27;;;;;;;7.57;1.77;;;15.00;98.70;;;;;;4956746;28;20390;-60
2022/10/19 13:06:56;;;;;;;8.60;2.30;;;15.20;98.60;;;;;;4956909;28;20047;-60